sensor_id;sensor_type;location;lat;lon;timestamp;P1;durP1;ratioP1;P2;durP2;ratioP2
51272;SDS011;37345;59.828;30.328;2023-05-10T00:01:32;4.82;;;2.13;;
51272;SDS011;37345;59.828;30.328;2023-05-10T00:03:59;6.53;;;1.90;;
51272;SDS011;37345;59.828;30.328;2023-05-10T00:06:25;5.85;;;1.50;;
51272;SDS011;37345;59.828;30.328;2023-05-10T00:08:51;9.02;;;2.70;;
51272;SDS011;37345;59.828;30.328;2023-05-10T00:11:17;4.85;;;2.13;;
51272;SDS011;37345;59.828;30.328;2023-05-10T00:13:44;4.85;;;1.98;;
51272;SDS011;37345;59.828;30.328;2023-05-10T00:16:10;3.80;;;1.92;;
51272;SDS011;37345;59.828;30.328;2023-05-10T00:18:38;4.60;;;1.80;;
51272;SDS011;37345;59.828;30.328;2023-05-10T00:21:04;4.72;;;1.90;;
51272;SDS011;37345;59.828;30.328;2023-05-10T00:23:31;3.78;;;1.95;;
51272;SDS011;37345;59.828;30.328;2023-05-10T00:25:58;5.80;;;2.13;;
51272;SDS011;37345;59.828;30.328;2023-05-10T00:28:24;5.60;;;2.10;;
51272;SDS011;37345;59.828;30.328;2023-05-10T00:30:50;7.63;;;2.53;;
51272;SDS011;37345;59.828;30.328;2023-05-10T00:33:16;8.27;;;2.60;;
51272;SDS011;37345;59.828;30.328;2023-05-10T00:35:43;4.85;;;2.60;;
51272;SDS011;37345;59.828;30.328;2023-05-10T00:38:09;6.50;;;2.10;;
51272;SDS011;37345;59.828;30.328;2023-05-10T00:40:35;6.70;;;2.42;;
51272;SDS011;37345;59.828;30.328;2023-05-10T00:43:02;5.22;;;2.70;;
51272;SDS011;37345;59.828;30.328;2023-05-10T00:45:29;3.78;;;1.67;;
51272;SDS011;37345;59.828;30.328;2023-05-10T00:47:56;5.60;;;2.17;;
51272;SDS011;37345;59.828;30.328;2023-05-10T00:50:22;5.43;;;2.10;;
51272;SDS011;37345;59.828;30.328;2023-05-10T00:52:49;5.00;;;2.40;;
51272;SDS011;37345;59.828;30.328;2023-05-10T00:55:15;3.95;;;2.00;;
51272;SDS011;37345;59.828;30.328;2023-05-10T00:57:41;5.25;;;1.92;;
51272;SDS011;37345;59.828;30.328;2023-05-10T01:00:08;3.47;;;1.73;;
51272;SDS011;37345;59.828;30.328;2023-05-10T01:02:34;3.50;;;2.10;;
51272;SDS011;37345;59.828;30.328;2023-05-10T01:05:01;6.28;;;2.42;;
51272;SDS011;37345;59.828;30.328;2023-05-10T01:07:28;5.50;;;2.47;;
51272;SDS011;37345;59.828;30.328;2023-05-10T01:09:55;8.32;;;2.50;;
51272;SDS011;37345;59.828;30.328;2023-05-10T01:12:21;6.43;;;2.00;;
51272;SDS011;37345;59.828;30.328;2023-05-10T01:14:48;4.90;;;2.20;;
51272;SDS011;37345;59.828;30.328;2023-05-10T01:17:14;5.82;;;2.35;;
51272;SDS011;37345;59.828;30.328;2023-05-10T01:19:41;5.80;;;2.30;;
51272;SDS011;37345;59.828;30.328;2023-05-10T01:35:17;3.83;;;1.90;;
51272;SDS011;37345;59.828;30.328;2023-05-10T01:37:46;5.22;;;2.03;;
51272;SDS011;37345;59.828;30.328;2023-05-10T01:40:15;6.28;;;2.22;;
51272;SDS011;37345;59.828;30.328;2023-05-10T01:42:50;4.93;;;2.10;;
51272;SDS011;37345;59.828;30.328;2023-05-10T01:45:24;6.32;;;2.65;;
51272;SDS011;37345;59.828;30.328;2023-05-10T01:48:03;7.20;;;2.88;;
51272;SDS011;37345;59.828;30.328;2023-05-10T01:50:31;6.13;;;3.10;;
51272;SDS011;37345;59.828;30.328;2023-05-10T01:52:59;11.43;;;4.70;;
51272;SDS011;37345;59.828;30.328;2023-05-10T01:55:27;11.70;;;3.53;;
51272;SDS011;37345;59.828;30.328;2023-05-10T01:58:02;8.98;;;3.90;;
51272;SDS011;37345;59.828;30.328;2023-05-10T02:00:29;10.25;;;3.70;;
51272;SDS011;37345;59.828;30.328;2023-05-10T02:02:56;18.00;;;4.63;;
51272;SDS011;37345;59.828;30.328;2023-05-10T02:05:23;14.27;;;3.88;;
51272;SDS011;37345;59.828;30.328;2023-05-10T02:07:50;7.53;;;3.50;;
51272;SDS011;37345;59.828;30.328;2023-05-10T02:10:16;19.75;;;4.57;;
51272;SDS011;37345;59.828;30.328;2023-05-10T02:12:45;15.85;;;4.35;;
51272;SDS011;37345;59.828;30.328;2023-05-10T02:15:12;14.80;;;4.45;;
51272;SDS011;37345;59.828;30.328;2023-05-10T02:17:39;10.40;;;4.40;;
51272;SDS011;37345;59.828;30.328;2023-05-10T02:20:06;11.02;;;3.45;;
51272;SDS011;37345;59.828;30.328;2023-05-10T02:22:32;12.70;;;4.80;;
51272;SDS011;37345;59.828;30.328;2023-05-10T02:24:59;10.63;;;4.88;;
51272;SDS011;37345;59.828;30.328;2023-05-10T02:27:27;14.52;;;4.15;;
51272;SDS011;37345;59.828;30.328;2023-05-10T02:29:53;15.70;;;3.95;;
51272;SDS011;37345;59.828;30.328;2023-05-10T02:32:20;11.80;;;4.47;;
51272;SDS011;37345;59.828;30.328;2023-05-10T02:34:47;14.77;;;4.90;;
51272;SDS011;37345;59.828;30.328;2023-05-10T02:37:17;13.90;;;4.30;;
51272;SDS011;37345;59.828;30.328;2023-05-10T02:39:46;13.70;;;4.82;;
51272;SDS011;37345;59.828;30.328;2023-05-10T02:42:13;22.67;;;6.07;;
51272;SDS011;37345;59.828;30.328;2023-05-10T02:44:41;17.58;;;5.68;;
51272;SDS011;37345;59.828;30.328;2023-05-10T02:47:08;10.10;;;5.07;;
51272;SDS011;37345;59.828;30.328;2023-05-10T02:49:34;13.88;;;4.55;;
51272;SDS011;37345;59.828;30.328;2023-05-10T02:52:01;12.50;;;4.57;;
51272;SDS011;37345;59.828;30.328;2023-05-10T02:54:33;12.63;;;4.47;;
51272;SDS011;37345;59.828;30.328;2023-05-10T02:57:03;13.90;;;4.38;;
51272;SDS011;37345;59.828;30.328;2023-05-10T02:59:30;12.17;;;4.53;;
51272;SDS011;37345;59.828;30.328;2023-05-10T03:01:57;10.25;;;4.13;;
51272;SDS011;37345;59.828;30.328;2023-05-10T03:04:25;10.00;;;3.90;;
51272;SDS011;37345;59.828;30.328;2023-05-10T03:06:51;10.55;;;3.95;;
51272;SDS011;37345;59.828;30.328;2023-05-10T03:09:17;9.00;;;3.90;;
51272;SDS011;37345;59.828;30.328;2023-05-10T03:12:01;10.82;;;4.43;;
51272;SDS011;37345;59.828;30.328;2023-05-10T03:17:04;15.33;;;5.37;;
51272;SDS011;37345;59.828;30.328;2023-05-10T03:19:34;11.35;;;5.85;;
51272;SDS011;37345;59.828;30.328;2023-05-10T03:22:04;11.20;;;5.72;;
51272;SDS011;37345;59.828;30.328;2023-05-10T03:24:32;14.83;;;6.53;;
51272;SDS011;37345;59.828;30.328;2023-05-10T03:27:00;12.15;;;6.00;;
51272;SDS011;37345;59.828;30.328;2023-05-10T03:29:27;17.42;;;6.38;;
51272;SDS011;37345;59.828;30.328;2023-05-10T03:31:57;15.25;;;6.07;;
51272;SDS011;37345;59.828;30.328;2023-05-10T03:34:23;15.07;;;6.78;;
51272;SDS011;37345;59.828;30.328;2023-05-10T03:36:49;16.13;;;6.82;;
51272;SDS011;37345;59.828;30.328;2023-05-10T03:39:15;14.98;;;6.55;;
51272;SDS011;37345;59.828;30.328;2023-05-10T03:41:42;12.77;;;6.38;;
51272;SDS011;37345;59.828;30.328;2023-05-10T03:44:08;9.57;;;5.70;;
51272;SDS011;37345;59.828;30.328;2023-05-10T03:46:34;15.53;;;6.77;;
51272;SDS011;37345;59.828;30.328;2023-05-10T03:49:00;19.42;;;8.70;;
51272;SDS011;37345;59.828;30.328;2023-05-10T03:51:26;19.58;;;8.60;;
51272;SDS011;37345;59.828;30.328;2023-05-10T03:53:55;17.52;;;8.73;;
51272;SDS011;37345;59.828;30.328;2023-05-10T03:56:21;14.57;;;7.17;;
51272;SDS011;37345;59.828;30.328;2023-05-10T03:58:47;88.93;;;43.92;;
51272;SDS011;37345;59.828;30.328;2023-05-10T04:01:14;36.33;;;17.98;;
51272;SDS011;37345;59.828;30.328;2023-05-10T04:03:40;28.10;;;13.55;;
51272;SDS011;37345;59.828;30.328;2023-05-10T04:06:06;21.98;;;11.07;;
51272;SDS011;37345;59.828;30.328;2023-05-10T04:08:34;20.58;;;8.50;;
51272;SDS011;37345;59.828;30.328;2023-05-10T04:11:09;15.10;;;7.57;;
51272;SDS011;37345;59.828;30.328;2023-05-10T04:13:36;17.83;;;7.80;;
51272;SDS011;37345;59.828;30.328;2023-05-10T04:16:02;24.17;;;10.10;;
51272;SDS011;37345;59.828;30.328;2023-05-10T04:18:28;20.30;;;8.75;;
51272;SDS011;37345;59.828;30.328;2023-05-10T04:20:54;18.42;;;9.52;;
51272;SDS011;37345;59.828;30.328;2023-05-10T04:23:20;17.23;;;7.57;;
51272;SDS011;37345;59.828;30.328;2023-05-10T04:25:46;14.07;;;7.38;;
51272;SDS011;37345;59.828;30.328;2023-05-10T04:28:13;14.85;;;6.80;;
51272;SDS011;37345;59.828;30.328;2023-05-10T04:30:39;15.02;;;7.10;;
51272;SDS011;37345;59.828;30.328;2023-05-10T04:33:05;16.05;;;7.10;;
51272;SDS011;37345;59.828;30.328;2023-05-10T04:35:31;13.48;;;7.15;;
51272;SDS011;37345;59.828;30.328;2023-05-10T04:37:57;18.75;;;7.30;;
51272;SDS011;37345;59.828;30.328;2023-05-10T04:40:23;12.23;;;6.85;;
51272;SDS011;37345;59.828;30.328;2023-05-10T04:42:49;16.15;;;6.57;;
51272;SDS011;37345;59.828;30.328;2023-05-10T04:45:15;17.83;;;6.88;;
51272;SDS011;37345;59.828;30.328;2023-05-10T04:47:42;14.83;;;6.80;;
51272;SDS011;37345;59.828;30.328;2023-05-10T04:50:08;19.83;;;6.80;;
51272;SDS011;37345;59.828;30.328;2023-05-10T04:52:34;17.02;;;7.07;;
51272;SDS011;37345;59.828;30.328;2023-05-10T04:55:01;16.85;;;7.03;;
51272;SDS011;37345;59.828;30.328;2023-05-10T04:57:27;13.10;;;6.57;;
51272;SDS011;37345;59.828;30.328;2023-05-10T04:59:53;16.20;;;6.90;;
51272;SDS011;37345;59.828;30.328;2023-05-10T05:02:19;18.63;;;6.43;;
51272;SDS011;37345;59.828;30.328;2023-05-10T05:04:45;20.65;;;6.43;;
51272;SDS011;37345;59.828;30.328;2023-05-10T05:07:11;15.38;;;6.63;;
51272;SDS011;37345;59.828;30.328;2023-05-10T05:09:37;17.17;;;6.18;;
51272;SDS011;37345;59.828;30.328;2023-05-10T05:12:03;13.20;;;6.28;;
51272;SDS011;37345;59.828;30.328;2023-05-10T05:14:29;14.15;;;6.40;;
51272;SDS011;37345;59.828;30.328;2023-05-10T05:16:56;15.90;;;6.70;;
51272;SDS011;37345;59.828;30.328;2023-05-10T05:19:22;11.83;;;5.93;;
51272;SDS011;37345;59.828;30.328;2023-05-10T05:21:48;15.25;;;6.05;;
51272;SDS011;37345;59.828;30.328;2023-05-10T05:24:14;10.02;;;5.70;;
51272;SDS011;37345;59.828;30.328;2023-05-10T05:26:40;17.00;;;5.85;;
51272;SDS011;37345;59.828;30.328;2023-05-10T05:29:06;17.17;;;6.25;;
51272;SDS011;37345;59.828;30.328;2023-05-10T05:31:32;13.63;;;5.85;;
51272;SDS011;37345;59.828;30.328;2023-05-10T05:33:58;10.93;;;5.10;;
51272;SDS011;37345;59.828;30.328;2023-05-10T05:36:24;10.20;;;4.93;;
51272;SDS011;37345;59.828;30.328;2023-05-10T05:38:51;11.77;;;5.00;;
51272;SDS011;37345;59.828;30.328;2023-05-10T05:41:17;10.65;;;4.43;;
51272;SDS011;37345;59.828;30.328;2023-05-10T05:43:43;12.70;;;4.30;;
51272;SDS011;37345;59.828;30.328;2023-05-10T05:46:09;8.52;;;4.45;;
51272;SDS011;37345;59.828;30.328;2023-05-10T05:48:35;6.15;;;3.70;;
51272;SDS011;37345;59.828;30.328;2023-05-10T05:51:01;6.47;;;2.97;;
51272;SDS011;37345;59.828;30.328;2023-05-10T05:53:27;4.03;;;2.70;;
51272;SDS011;37345;59.828;30.328;2023-05-10T05:55:54;5.70;;;2.50;;
51272;SDS011;37345;59.828;30.328;2023-05-10T05:58:20;6.35;;;2.35;;
51272;SDS011;37345;59.828;30.328;2023-05-10T06:00:47;3.00;;;2.27;;
51272;SDS011;37345;59.828;30.328;2023-05-10T06:03:13;4.83;;;2.47;;
51272;SDS011;37345;59.828;30.328;2023-05-10T06:05:39;4.40;;;2.13;;
51272;SDS011;37345;59.828;30.328;2023-05-10T06:08:05;5.32;;;2.50;;
51272;SDS011;37345;59.828;30.328;2023-05-10T06:10:31;3.85;;;2.30;;
51272;SDS011;37345;59.828;30.328;2023-05-10T06:12:57;4.75;;;2.08;;
51272;SDS011;37345;59.828;30.328;2023-05-10T06:15:23;5.15;;;2.10;;
51272;SDS011;37345;59.828;30.328;2023-05-10T06:17:49;5.95;;;2.03;;
51272;SDS011;37345;59.828;30.328;2023-05-10T06:20:15;4.75;;;2.15;;
51272;SDS011;37345;59.828;30.328;2023-05-10T06:22:42;4.18;;;2.30;;
51272;SDS011;37345;59.828;30.328;2023-05-10T06:25:08;3.35;;;1.92;;
51272;SDS011;37345;59.828;30.328;2023-05-10T06:27:34;3.38;;;2.03;;
51272;SDS011;37345;59.828;30.328;2023-05-10T06:30:01;3.17;;;2.10;;
51272;SDS011;37345;59.828;30.328;2023-05-10T06:32:27;3.00;;;2.05;;
51272;SDS011;37345;59.828;30.328;2023-05-10T06:34:53;5.70;;;1.88;;
51272;SDS011;37345;59.828;30.328;2023-05-10T06:37:20;5.05;;;2.30;;
51272;SDS011;37345;59.828;30.328;2023-05-10T06:39:46;2.13;;;1.70;;
51272;SDS011;37345;59.828;30.328;2023-05-10T06:42:12;3.72;;;1.92;;
51272;SDS011;37345;59.828;30.328;2023-05-10T06:44:38;4.97;;;1.90;;
51272;SDS011;37345;59.828;30.328;2023-05-10T06:47:04;5.18;;;2.33;;
51272;SDS011;37345;59.828;30.328;2023-05-10T06:49:30;5.13;;;2.08;;
51272;SDS011;37345;59.828;30.328;2023-05-10T06:51:56;8.85;;;2.28;;
51272;SDS011;37345;59.828;30.328;2023-05-10T06:54:22;4.93;;;2.55;;
51272;SDS011;37345;59.828;30.328;2023-05-10T06:56:48;7.78;;;2.53;;
51272;SDS011;37345;59.828;30.328;2023-05-10T06:59:14;6.22;;;2.60;;
51272;SDS011;37345;59.828;30.328;2023-05-10T07:01:41;6.50;;;2.67;;
51272;SDS011;37345;59.828;30.328;2023-05-10T07:04:07;7.47;;;2.45;;
51272;SDS011;37345;59.828;30.328;2023-05-10T07:06:34;5.00;;;2.30;;
51272;SDS011;37345;59.828;30.328;2023-05-10T07:09:00;6.38;;;2.35;;
51272;SDS011;37345;59.828;30.328;2023-05-10T07:11:27;8.60;;;3.10;;
51272;SDS011;37345;59.828;30.328;2023-05-10T07:13:53;5.68;;;2.60;;
51272;SDS011;37345;59.828;30.328;2023-05-10T07:16:19;7.07;;;2.47;;
51272;SDS011;37345;59.828;30.328;2023-05-10T07:18:46;5.82;;;2.40;;
51272;SDS011;37345;59.828;30.328;2023-05-10T07:21:12;8.52;;;2.78;;
51272;SDS011;37345;59.828;30.328;2023-05-10T07:23:38;5.90;;;2.50;;
51272;SDS011;37345;59.828;30.328;2023-05-10T07:26:04;4.70;;;2.60;;
51272;SDS011;37345;59.828;30.328;2023-05-10T07:28:30;5.15;;;2.72;;
51272;SDS011;37345;59.828;30.328;2023-05-10T07:30:56;6.65;;;2.35;;
51272;SDS011;37345;59.828;30.328;2023-05-10T07:33:23;5.40;;;2.28;;
51272;SDS011;37345;59.828;30.328;2023-05-10T07:35:49;5.85;;;2.50;;
51272;SDS011;37345;59.828;30.328;2023-05-10T07:38:15;5.57;;;2.20;;
51272;SDS011;37345;59.828;30.328;2023-05-10T07:40:42;4.60;;;2.22;;
51272;SDS011;37345;59.828;30.328;2023-05-10T07:43:08;5.72;;;2.20;;
51272;SDS011;37345;59.828;30.328;2023-05-10T07:45:34;3.13;;;2.00;;
51272;SDS011;37345;59.828;30.328;2023-05-10T07:48:00;4.80;;;1.90;;
51272;SDS011;37345;59.828;30.328;2023-05-10T07:50:26;2.67;;;1.83;;
51272;SDS011;37345;59.828;30.328;2023-05-10T07:52:53;3.88;;;1.70;;
51272;SDS011;37345;59.828;30.328;2023-05-10T07:55:19;3.15;;;1.60;;
51272;SDS011;37345;59.828;30.328;2023-05-10T07:57:48;4.30;;;2.00;;
51272;SDS011;37345;59.828;30.328;2023-05-10T08:00:17;3.70;;;1.63;;
51272;SDS011;37345;59.828;30.328;2023-05-10T08:02:43;3.10;;;1.70;;
51272;SDS011;37345;59.828;30.328;2023-05-10T08:05:09;3.23;;;1.60;;
51272;SDS011;37345;59.828;30.328;2023-05-10T08:07:35;2.60;;;1.60;;
51272;SDS011;37345;59.828;30.328;2023-05-10T08:10:02;2.30;;;1.60;;
51272;SDS011;37345;59.828;30.328;2023-05-10T08:12:28;4.03;;;1.58;;
51272;SDS011;37345;59.828;30.328;2023-05-10T08:14:55;3.60;;;1.33;;
51272;SDS011;37345;59.828;30.328;2023-05-10T08:17:21;4.45;;;1.38;;
51272;SDS011;37345;59.828;30.328;2023-05-10T08:19:47;5.10;;;1.60;;
51272;SDS011;37345;59.828;30.328;2023-05-10T08:22:13;3.03;;;1.48;;
51272;SDS011;37345;59.828;30.328;2023-05-10T08:24:39;1.83;;;1.30;;
51272;SDS011;37345;59.828;30.328;2023-05-10T08:27:07;3.35;;;1.40;;
51272;SDS011;37345;59.828;30.328;2023-05-10T08:29:33;6.55;;;1.60;;
51272;SDS011;37345;59.828;30.328;2023-05-10T08:31:59;5.05;;;1.73;;
51272;SDS011;37345;59.828;30.328;2023-05-10T08:34:28;3.70;;;1.40;;
51272;SDS011;37345;59.828;30.328;2023-05-10T08:36:56;3.42;;;1.63;;
51272;SDS011;37345;59.828;30.328;2023-05-10T08:39:22;2.90;;;1.20;;
51272;SDS011;37345;59.828;30.328;2023-05-10T08:41:48;3.95;;;1.30;;
51272;SDS011;37345;59.828;30.328;2023-05-10T08:44:16;2.90;;;1.33;;
51272;SDS011;37345;59.828;30.328;2023-05-10T08:46:44;2.05;;;1.25;;
51272;SDS011;37345;59.828;30.328;2023-05-10T08:49:12;4.07;;;1.90;;
51272;SDS011;37345;59.828;30.328;2023-05-10T08:51:40;5.15;;;1.50;;
51272;SDS011;37345;59.828;30.328;2023-05-10T08:54:09;4.80;;;1.50;;
51272;SDS011;37345;59.828;30.328;2023-05-10T08:56:36;5.88;;;1.40;;
51272;SDS011;37345;59.828;30.328;2023-05-10T08:59:02;4.38;;;1.45;;
51272;SDS011;37345;59.828;30.328;2023-05-10T09:01:28;2.85;;;1.35;;
51272;SDS011;37345;59.828;30.328;2023-05-10T09:03:56;2.20;;;1.15;;
51272;SDS011;37345;59.828;30.328;2023-05-10T09:06:23;5.20;;;1.40;;
51272;SDS011;37345;59.828;30.328;2023-05-10T09:08:49;1.80;;;1.38;;
51272;SDS011;37345;59.828;30.328;2023-05-10T09:11:16;3.57;;;1.20;;
51272;SDS011;37345;59.828;30.328;2023-05-10T09:13:43;5.50;;;1.67;;
51272;SDS011;37345;59.828;30.328;2023-05-10T09:16:09;2.50;;;1.30;;
51272;SDS011;37345;59.828;30.328;2023-05-10T09:18:35;5.47;;;1.40;;
51272;SDS011;37345;59.828;30.328;2023-05-10T09:21:01;2.87;;;1.57;;
51272;SDS011;37345;59.828;30.328;2023-05-10T09:23:27;3.57;;;1.47;;
51272;SDS011;37345;59.828;30.328;2023-05-10T09:26:06;4.28;;;1.30;;
51272;SDS011;37345;59.828;30.328;2023-05-10T09:28:49;4.40;;;1.00;;
51272;SDS011;37345;59.828;30.328;2023-05-10T09:31:16;5.38;;;1.10;;
51272;SDS011;37345;59.828;30.328;2023-05-10T09:33:45;2.00;;;1.20;;
51272;SDS011;37345;59.828;30.328;2023-05-10T09:36:12;3.92;;;1.00;;
51272;SDS011;37345;59.828;30.328;2023-05-10T09:38:45;6.47;;;1.25;;
51272;SDS011;37345;59.828;30.328;2023-05-10T09:41:15;2.70;;;1.10;;
51272;SDS011;37345;59.828;30.328;2023-05-10T09:43:42;3.10;;;0.90;;
51272;SDS011;37345;59.828;30.328;2023-05-10T09:46:10;2.53;;;0.88;;
51272;SDS011;37345;59.828;30.328;2023-05-10T09:48:44;3.47;;;1.10;;
51272;SDS011;37345;59.828;30.328;2023-05-10T09:51:18;5.20;;;1.10;;
51272;SDS011;37345;59.828;30.328;2023-05-10T09:53:44;2.72;;;1.05;;
51272;SDS011;37345;59.828;30.328;2023-05-10T09:56:10;5.53;;;1.10;;
51272;SDS011;37345;59.828;30.328;2023-05-10T09:58:36;2.50;;;1.02;;
51272;SDS011;37345;59.828;30.328;2023-05-10T10:01:03;2.22;;;1.20;;
51272;SDS011;37345;59.828;30.328;2023-05-10T10:03:29;2.10;;;1.10;;
51272;SDS011;37345;59.828;30.328;2023-05-10T10:05:56;2.88;;;1.35;;
51272;SDS011;37345;59.828;30.328;2023-05-10T10:08:22;2.15;;;0.90;;
51272;SDS011;37345;59.828;30.328;2023-05-10T10:10:48;3.25;;;1.00;;
51272;SDS011;37345;59.828;30.328;2023-05-10T10:13:15;3.15;;;1.10;;
51272;SDS011;37345;59.828;30.328;2023-05-10T10:15:42;1.63;;;1.00;;
51272;SDS011;37345;59.828;30.328;2023-05-10T10:18:13;2.55;;;1.13;;
51272;SDS011;37345;59.828;30.328;2023-05-10T10:20:42;2.83;;;1.00;;
51272;SDS011;37345;59.828;30.328;2023-05-10T10:23:08;8.52;;;1.10;;
51272;SDS011;37345;59.828;30.328;2023-05-10T10:25:34;1.60;;;0.82;;
51272;SDS011;37345;59.828;30.328;2023-05-10T10:28:05;1.15;;;0.70;;
51272;SDS011;37345;59.828;30.328;2023-05-10T10:35:52;3.80;;;1.20;;
51272;SDS011;37345;59.828;30.328;2023-05-10T10:38:19;2.97;;;0.80;;
51272;SDS011;37345;59.828;30.328;2023-05-10T10:40:45;3.10;;;1.25;;
51272;SDS011;37345;59.828;30.328;2023-05-10T10:43:21;3.50;;;0.90;;
51272;SDS011;37345;59.828;30.328;2023-05-10T10:46:09;2.83;;;1.00;;
51272;SDS011;37345;59.828;30.328;2023-05-10T10:48:34;1.50;;;0.90;;
51272;SDS011;37345;59.828;30.328;2023-05-10T10:51:00;2.30;;;0.80;;
51272;SDS011;37345;59.828;30.328;2023-05-10T10:53:26;4.75;;;0.90;;
51272;SDS011;37345;59.828;30.328;2023-05-10T10:56:02;1.40;;;1.00;;
51272;SDS011;37345;59.828;30.328;2023-05-10T10:58:31;2.95;;;0.80;;
51272;SDS011;37345;59.828;30.328;2023-05-10T11:01:10;1.77;;;0.80;;
51272;SDS011;37345;59.828;30.328;2023-05-10T11:03:37;4.30;;;0.75;;
51272;SDS011;37345;59.828;30.328;2023-05-10T11:06:03;2.15;;;1.50;;
51272;SDS011;37345;59.828;30.328;2023-05-10T11:08:32;2.55;;;0.90;;
51272;SDS011;37345;59.828;30.328;2023-05-10T11:13:31;2.95;;;0.93;;
51272;SDS011;37345;59.828;30.328;2023-05-10T11:15:58;2.63;;;0.75;;
51272;SDS011;37345;59.828;30.328;2023-05-10T11:20:58;2.08;;;0.90;;
51272;SDS011;37345;59.828;30.328;2023-05-10T11:26:09;3.13;;;1.02;;
51272;SDS011;37345;59.828;30.328;2023-05-10T11:28:45;3.65;;;1.10;;
51272;SDS011;37345;59.828;30.328;2023-05-10T11:31:15;2.20;;;0.90;;
51272;SDS011;37345;59.828;30.328;2023-05-10T11:33:42;5.70;;;1.00;;
51272;SDS011;37345;59.828;30.328;2023-05-10T11:36:14;2.47;;;1.10;;
51272;SDS011;37345;59.828;30.328;2023-05-10T11:38:40;3.25;;;0.98;;
51272;SDS011;37345;59.828;30.328;2023-05-10T11:41:08;3.58;;;1.00;;
51272;SDS011;37345;59.828;30.328;2023-05-10T11:43:35;2.70;;;1.05;;
51272;SDS011;37345;59.828;30.328;2023-05-10T11:46:03;5.32;;;0.85;;
51272;SDS011;37345;59.828;30.328;2023-05-10T11:48:30;1.58;;;0.90;;
51272;SDS011;37345;59.828;30.328;2023-05-10T11:50:56;3.03;;;0.98;;
51272;SDS011;37345;59.828;30.328;2023-05-10T11:53:23;1.48;;;0.88;;
51272;SDS011;37345;59.828;30.328;2023-05-10T11:55:49;3.50;;;1.00;;
51272;SDS011;37345;59.828;30.328;2023-05-10T11:58:15;3.80;;;0.93;;
51272;SDS011;37345;59.828;30.328;2023-05-10T12:00:41;0.80;;;0.65;;
51272;SDS011;37345;59.828;30.328;2023-05-10T12:03:07;1.17;;;0.90;;
51272;SDS011;37345;59.828;30.328;2023-05-10T12:05:35;1.27;;;1.02;;
51272;SDS011;37345;59.828;30.328;2023-05-10T12:08:11;2.42;;;0.93;;
51272;SDS011;37345;59.828;30.328;2023-05-10T12:10:37;3.08;;;1.23;;
51272;SDS011;37345;59.828;30.328;2023-05-10T12:13:03;4.20;;;1.30;;
51272;SDS011;37345;59.828;30.328;2023-05-10T12:15:30;3.23;;;1.17;;
51272;SDS011;37345;59.828;30.328;2023-05-10T12:17:56;3.33;;;1.23;;
51272;SDS011;37345;59.828;30.328;2023-05-10T12:20:26;3.75;;;1.15;;
51272;SDS011;37345;59.828;30.328;2023-05-10T12:22:54;2.40;;;1.15;;
51272;SDS011;37345;59.828;30.328;2023-05-10T12:25:21;4.15;;;1.42;;
51272;SDS011;37345;59.828;30.328;2023-05-10T12:27:54;4.05;;;1.35;;
51272;SDS011;37345;59.828;30.328;2023-05-10T12:30:22;4.13;;;1.58;;
51272;SDS011;37345;59.828;30.328;2023-05-10T12:32:48;5.80;;;1.10;;
51272;SDS011;37345;59.828;30.328;2023-05-10T12:35:14;2.03;;;0.93;;
51272;SDS011;37345;59.828;30.328;2023-05-10T12:37:41;1.92;;;1.13;;
51272;SDS011;37345;59.828;30.328;2023-05-10T12:40:08;3.00;;;0.90;;
51272;SDS011;37345;59.828;30.328;2023-05-10T12:42:36;2.83;;;1.00;;
51272;SDS011;37345;59.828;30.328;2023-05-10T12:45:02;4.43;;;1.17;;
51272;SDS011;37345;59.828;30.328;2023-05-10T12:47:28;2.08;;;0.90;;
51272;SDS011;37345;59.828;30.328;2023-05-10T12:49:55;2.55;;;1.10;;
51272;SDS011;37345;59.828;30.328;2023-05-10T12:52:21;2.58;;;1.17;;
51272;SDS011;37345;59.828;30.328;2023-05-10T12:54:47;1.33;;;0.80;;
51272;SDS011;37345;59.828;30.328;2023-05-10T12:57:14;3.17;;;0.80;;
51272;SDS011;37345;59.828;30.328;2023-05-10T12:59:40;3.70;;;1.25;;
51272;SDS011;37345;59.828;30.328;2023-05-10T13:02:06;4.68;;;1.35;;
51272;SDS011;37345;59.828;30.328;2023-05-10T13:04:32;2.00;;;1.10;;
51272;SDS011;37345;59.828;30.328;2023-05-10T13:06:58;3.50;;;1.23;;
51272;SDS011;37345;59.828;30.328;2023-05-10T13:09:25;5.40;;;1.40;;
51272;SDS011;37345;59.828;30.328;2023-05-10T13:11:52;1.93;;;0.80;;
51272;SDS011;37345;59.828;30.328;2023-05-10T13:14:20;5.10;;;1.30;;
51272;SDS011;37345;59.828;30.328;2023-05-10T13:16:47;4.17;;;1.00;;
51272;SDS011;37345;59.828;30.328;2023-05-10T13:19:13;2.53;;;1.27;;
51272;SDS011;37345;59.828;30.328;2023-05-10T13:21:39;3.70;;;1.10;;
51272;SDS011;37345;59.828;30.328;2023-05-10T13:24:06;4.55;;;1.00;;
51272;SDS011;37345;59.828;30.328;2023-05-10T13:26:32;3.55;;;1.02;;
51272;SDS011;37345;59.828;30.328;2023-05-10T13:28:58;4.40;;;1.27;;
51272;SDS011;37345;59.828;30.328;2023-05-10T13:31:24;1.80;;;1.10;;
51272;SDS011;37345;59.828;30.328;2023-05-10T13:33:50;2.80;;;1.10;;
51272;SDS011;37345;59.828;30.328;2023-05-10T13:36:17;3.75;;;1.23;;
51272;SDS011;37345;59.828;30.328;2023-05-10T13:38:43;4.22;;;1.08;;
51272;SDS011;37345;59.828;30.328;2023-05-10T13:41:09;3.28;;;1.10;;
51272;SDS011;37345;59.828;30.328;2023-05-10T13:43:35;3.60;;;1.35;;
51272;SDS011;37345;59.828;30.328;2023-05-10T13:46:01;2.95;;;0.90;;
51272;SDS011;37345;59.828;30.328;2023-05-10T13:48:27;4.47;;;1.00;;
51272;SDS011;37345;59.828;30.328;2023-05-10T13:50:53;1.92;;;0.70;;
51272;SDS011;37345;59.828;30.328;2023-05-10T13:53:20;4.57;;;1.08;;
51272;SDS011;37345;59.828;30.328;2023-05-10T13:55:46;2.60;;;0.88;;
51272;SDS011;37345;59.828;30.328;2023-05-10T13:58:12;2.07;;;0.83;;
51272;SDS011;37345;59.828;30.328;2023-05-10T14:00:38;2.55;;;0.90;;
51272;SDS011;37345;59.828;30.328;2023-05-10T14:03:05;2.45;;;0.90;;
51272;SDS011;37345;59.828;30.328;2023-05-10T14:05:32;6.32;;;1.00;;
51272;SDS011;37345;59.828;30.328;2023-05-10T14:07:58;2.80;;;1.10;;
51272;SDS011;37345;59.828;30.328;2023-05-10T14:10:24;1.42;;;0.73;;
51272;SDS011;37345;59.828;30.328;2023-05-10T14:12:50;6.50;;;1.37;;
51272;SDS011;37345;59.828;30.328;2023-05-10T14:15:16;1.83;;;1.08;;
51272;SDS011;37345;59.828;30.328;2023-05-10T14:17:43;3.10;;;1.20;;
51272;SDS011;37345;59.828;30.328;2023-05-10T14:20:09;1.30;;;0.85;;
51272;SDS011;37345;59.828;30.328;2023-05-10T14:22:35;2.50;;;1.00;;
51272;SDS011;37345;59.828;30.328;2023-05-10T14:25:01;3.03;;;1.30;;
51272;SDS011;37345;59.828;30.328;2023-05-10T14:27:27;3.58;;;0.80;;
51272;SDS011;37345;59.828;30.328;2023-05-10T14:29:53;5.90;;;1.00;;
51272;SDS011;37345;59.828;30.328;2023-05-10T14:32:20;2.10;;;1.10;;
51272;SDS011;37345;59.828;30.328;2023-05-10T14:34:46;5.93;;;1.00;;
51272;SDS011;37345;59.828;30.328;2023-05-10T14:37:13;3.42;;;0.90;;
51272;SDS011;37345;59.828;30.328;2023-05-10T14:39:39;3.47;;;1.23;;
51272;SDS011;37345;59.828;30.328;2023-05-10T14:42:07;7.40;;;1.20;;
51272;SDS011;37345;59.828;30.328;2023-05-10T14:44:33;2.60;;;1.07;;
51272;SDS011;37345;59.828;30.328;2023-05-10T14:47:00;4.13;;;1.20;;
51272;SDS011;37345;59.828;30.328;2023-05-10T14:49:26;3.20;;;1.05;;
51272;SDS011;37345;59.828;30.328;2023-05-10T14:51:52;7.75;;;1.40;;
51272;SDS011;37345;59.828;30.328;2023-05-10T14:54:18;4.47;;;1.40;;
51272;SDS011;37345;59.828;30.328;2023-05-10T14:56:44;2.00;;;1.60;;
51272;SDS011;37345;59.828;30.328;2023-05-10T14:59:11;4.45;;;1.10;;